Search for airport 
image banner adimage banner adimage banner ad
image banner ad

IA09 - Grinnell Rgnl Medical Center

Located in Grinnell, United States

ICAO - IA09, IATA -

Data provided by Airmate  

General information

Coordinates: N41°44'32" W92°44'5"
Elevation is 18 feet MSL.
Magnetic variation is 03° East
View others Airports in Iowa

Operational data

Special qualification required
Current time UTC:
Current local time:
Weather at : KGGI - Grinnell Rgnl ( 4 km )
METAR: KGGI 151035Z AUTO 33004KT 10SM CLR 15/11 A3010 RMK AO2 T01460111
View NOTAMs / SUP AIP / TFR affecting this airport [VIEW]
Communications frequencies: [VIEW]

Runways:

Airport contact information

Address: Grinnell United States

Satellite view of IA09